Time;durP1;ratioP1;P1;durP2;ratioP2;P2;SDS_P1;SDS_P2;PMS_P1;PMS_P2;Temp;Humidity;BMP_temperature;BMP_pressure;BME280_temperature;BME280_humidity;BME280_pressure;Samples;Min_cycle;Max_cycle;Signal;HPM_P1;HPM_P2
2023/04/30 00:00:40;;;;;;;;;;;;;;;7.91;100.00;102250.69;5141349;28;19918;-74
2023/04/30 00:03:10;;;;;;;;;;;;;;;7.90;100.00;102250.81;5142394;28;19936;-74
2023/04/30 00:05:40;;;;;;;;;;;;;;;7.86;100.00;102260.00;5141125;28;19921;-73
2023/04/30 00:08:11;;;;;;;;;;;;;;;7.82;100.00;102269.22;5141712;28;19911;-74
2023/04/30 00:10:41;;;;;;;;;;;;;;;7.74;100.00;102251.09;5141897;28;19949;-74
2023/04/30 00:13:12;;;;;;;;;;;;;;;7.67;100.00;102256.00;5142001;28;19918;-74
2023/04/30 00:15:43;;;;;;;;;;;;;;;7.58;100.00;102254.03;5140866;28;20425;-74
2023/04/30 00:18:13;;;;;;;;;;;;;;;7.51;100.00;102258.97;5133214;28;19953;-74
2023/04/30 00:20:44;;;;;;;;;;;;;;;7.47;100.00;102257.47;5121774;28;20005;-73
2023/04/30 00:23:14;;;;;;;;;;;;;;;7.41;100.00;102257.91;5122467;28;19914;-74
2023/04/30 00:25:44;;;;;;;;;;;;;;;7.35;100.00;102249.50;5122222;28;19914;-74
2023/04/30 00:28:15;;;;;;;;;;;;;;;7.27;100.00;102245.56;5130923;28;20394;-74
2023/04/30 00:30:45;;;;;;;;;;;;;;;7.22;100.00;102253.06;5136326;28;20385;-74
2023/04/30 00:33:15;;;;;;;;;;;;;;;7.16;100.00;102252.66;5122680;28;19921;-73
2023/04/30 00:35:46;;;;;;;;;;;;;;;7.10;100.00;102250.44;5122231;28;19925;-73
2023/04/30 00:38:16;;;;;;;;;;;;;;;7.01;100.00;102251.94;5132437;28;19988;-75
2023/04/30 00:40:47;;;;;;;;;;;;;;;6.86;100.00;102245.00;5135526;28;19925;-74
2023/04/30 00:43:17;;;;;;;;;;;;;;;6.72;100.00;102244.16;5122406;28;19932;-73
2023/04/30 00:45:48;;;;;;;;;;;;;;;6.63;100.00;102252.81;5129518;28;19977;-73
2023/04/30 00:48:18;;;;;;;;;;;;;;;6.58;100.00;102252.28;5139065;28;19918;-74
2023/04/30 00:50:49;;;;;;;;;;;;;;;6.56;100.00;102246.19;5123234;28;19918;-74
2023/04/30 00:53:19;;;;;;;;;;;;;;;6.55;100.00;102252.47;5141724;28;20294;-74
2023/04/30 00:55:50;;;;;;;;;;;;;;;6.52;100.00;102254.50;5132698;28;20056;-73
2023/04/30 00:58:21;;;;;;;;;;;;;;;6.48;100.00;102257.41;5121354;28;19922;-73
2023/04/30 01:00:51;;;;;;;;;;;;;;;6.44;100.00;102258.56;5123626;28;19918;-73
2023/04/30 01:03:22;;;;;;;;;;;;;;;6.37;100.00;102259.91;5122974;28;19925;-74
2023/04/30 01:05:53;;;;;;;;;;;;;;;6.31;100.00;102254.16;5122283;28;19914;-74
2023/04/30 01:08:23;;;;;;;;;;;;;;;6.27;100.00;102255.31;5139738;28;19914;-73
2023/04/30 01:11:04;;;;;;;;;;;;;;;6.23;100.00;102250.22;5141643;28;20395;-74
2023/04/30 01:14:13;;;;;;;;;;;;;;;6.25;100.00;102251.91;5155391;28;19989;-73
2023/04/30 01:16:50;;;;;;;;;;;;;;;6.20;100.00;102253.06;5129575;28;19914;-74
2023/04/30 01:19:39;;;;;;;;;;;;;;;6.14;100.00;102258.81;5142100;28;20326;-73
2023/04/30 01:22:26;;;;;;;;;;;;;;;6.09;100.00;102254.75;5142110;28;19925;-73
2023/04/30 01:24:56;;;;;;;;;;;;;;;6.01;100.00;102252.59;5141178;28;20005;-73
2023/04/30 01:27:45;;;;;;;;;;;;;;;5.96;100.00;102255.56;5140589;28;20012;-73
2023/04/30 01:30:17;;;;;;;;;;;;;;;5.87;100.00;102257.94;5135487;28;19929;-73
2023/04/30 01:32:47;;;;;;;;;;;;;;;5.81;100.00;102259.22;5125400;28;19937;-73
2023/04/30 01:35:17;;;;;;;;;;;;;;;5.82;100.00;102252.06;5140177;28;19918;-73
2023/04/30 01:37:58;;;;;;;;;;;;;;;5.82;100.00;102260.91;5144399;28;19914;-73
2023/04/30 01:40:40;;;;;;;;;;;;;;;5.79;100.00;102253.16;5144967;28;19997;-73
2023/04/30 01:43:18;;;;;;;;;;;;;;;5.74;100.00;102263.25;5133010;28;19921;-73
2023/04/30 01:46:07;;;;;;;;;;;;;;;5.70;100.00;102262.59;5124317;28;19924;-74
2023/04/30 01:48:39;;;;;;;;;;;;;;;5.77;100.00;102260.38;5124425;28;19921;-74
2023/04/30 01:51:28;;;;;;;;;;;;;;;5.80;100.00;102268.16;5130587;28;20291;-73
2023/04/30 01:54:02;;;;;;;;;;;;;;;5.85;100.00;102255.41;5132829;28;19945;-74
2023/04/30 01:56:37;;;;;;;;;;;;;;;5.83;100.00;102254.66;5144179;28;20405;-73
2023/04/30 01:59:08;;;;;;;;;;;;;;;5.79;100.00;102250.47;5145280;28;19936;-73
2023/04/30 02:01:38;;;;;;;;;;;;;;;5.77;100.00;102259.50;5144206;28;19918;-73
2023/04/30 02:04:09;;;;;;;;;;;;;;;5.78;100.00;102254.09;5144864;28;20343;-73
2023/04/30 02:06:40;;;;;;;;;;;;;;;5.70;100.00;102249.28;5143839;28;20126;-74
2023/04/30 02:09:10;;;;;;;;;;;;;;;5.64;100.00;102251.50;5143892;28;19960;-73
2023/04/30 02:11:41;;;;;;;;;;;;;;;5.60;100.00;102257.97;5123644;28;20392;-73
2023/04/30 02:14:11;;;;;;;;;;;;;;;5.51;100.00;102259.41;5138675;28;19921;-74
2023/04/30 02:16:42;;;;;;;;;;;;;;;5.41;100.00;102258.28;5142787;28;19918;-73
2023/04/30 02:19:12;;;;;;;;;;;;;;;5.36;100.00;102263.91;5144704;28;20375;-74
2023/04/30 02:21:43;;;;;;;;;;;;;;;5.26;100.00;102254.78;5134379;28;19945;-74
2023/04/30 02:24:16;;;;;;;;;;;;;;;5.20;100.00;102264.03;5124617;28;19953;-73
2023/04/30 02:26:52;;;;;;;;;;;;;;;5.16;100.00;102264.31;5123755;28;19937;-73
2023/04/30 02:29:22;;;;;;;;;;;;;;;5.12;100.00;102268.09;5136736;28;19918;-74
2023/04/30 02:31:53;;;;;;;;;;;;;;;5.11;100.00;102266.41;5130713;28;20328;-74
2023/04/30 02:34:24;;;;;;;;;;;;;;;5.11;100.00;102261.94;5124727;28;20027;-73
2023/04/30 02:36:54;;;;;;;;;;;;;;;5.11;100.00;102253.97;5137321;28;19961;-74
2023/04/30 02:39:25;;;;;;;;;;;;;;;5.10;100.00;102254.91;5135372;28;20298;-74
2023/04/30 02:41:55;;;;;;;;;;;;;;;5.09;100.00;102253.22;5123936;28;19997;-74
2023/04/30 02:44:25;;;;;;;;;;;;;;;5.09;100.00;102258.53;5124500;28;19914;-73
2023/04/30 02:46:56;;;;;;;;;;;;;;;5.07;100.00;102265.78;5125383;28;19997;-73
2023/04/30 02:49:26;;;;;;;;;;;;;;;5.00;100.00;102255.59;5132784;28;19914;-73
2023/04/30 02:51:56;;;;;;;;;;;;;;;4.94;100.00;102256.84;5134303;28;19914;-74
2023/04/30 02:54:27;;;;;;;;;;;;;;;4.90;100.00;102258.81;5143889;28;19969;-73
2023/04/30 02:56:57;;;;;;;;;;;;;;;4.90;100.00;102260.63;5123530;28;20315;-73
2023/04/30 02:59:27;;;;;;;;;;;;;;;4.88;100.00;102254.56;5124162;28;19914;-74
2023/04/30 03:01:58;;;;;;;;;;;;;;;4.86;100.00;102256.44;5142471;28;19925;-73
2023/04/30 03:04:28;;;;;;;;;;;;;;;4.84;100.00;102261.00;5143673;28;20028;-73
2023/04/30 03:06:59;;;;;;;;;;;;;;;4.82;100.00;102258.47;5142387;28;20367;-73
2023/04/30 03:09:31;;;;;;;;;;;;;;;4.82;100.00;102249.59;5143501;28;19933;-74
2023/04/30 03:12:01;;;;;;;;;;;;;;;4.82;100.00;102258.47;5143670;28;20438;-74
2023/04/30 03:14:31;;;;;;;;;;;;;;;4.82;100.00;102253.13;5143727;28;19922;-73
2023/04/30 03:17:02;;;;;;;;;;;;;;;4.80;100.00;102255.03;5141022;28;19918;-73
2023/04/30 03:19:32;;;;;;;;;;;;;;;4.76;100.00;102258.81;5143490;28;19921;-73
2023/04/30 03:22:03;;;;;;;;;;;;;;;4.76;100.00;102256.16;5143256;28;19918;-73
2023/04/30 03:24:33;;;;;;;;;;;;;;;4.76;100.00;102260.63;5143472;28;19918;-74
2023/04/30 03:27:04;;;;;;;;;;;;;;;4.66;100.00;102261.16;5141361;28;19949;-73
2023/04/30 03:29:34;;;;;;;;;;;;;;;4.61;100.00;102254.44;5139077;28;19924;-74
2023/04/30 03:32:04;;;;;;;;;;;;;;;4.56;100.00;102249.38;5128471;28;19969;-74
2023/04/30 03:34:35;;;;;;;;;;;;;;;4.55;100.00;102254.81;5123536;28;20001;-74
2023/04/30 03:37:05;;;;;;;;;;;;;;;4.51;100.00;102254.13;5121940;28;20393;-73
2023/04/30 03:39:35;;;;;;;;;;;;;;;4.50;100.00;102257.75;5133202;28;19946;-73
2023/04/30 03:42:06;;;;;;;;;;;;;;;4.51;100.00;102254.13;5142915;28;19973;-73
2023/04/30 03:44:37;;;;;;;;;;;;;;;4.52;100.00;102252.31;5141407;28;19917;-74
2023/04/30 03:47:08;;;;;;;;;;;;;;;4.51;100.00;102246.16;5135923;28;19918;-73
2023/04/30 03:49:40;;;;;;;;;;;;;;;4.51;100.00;102247.97;5121975;28;19921;-74
2023/04/30 03:52:11;;;;;;;;;;;;;;;4.49;100.00;102249.88;5135672;28;19921;-73
2023/04/30 03:54:41;;;;;;;;;;;;;;;4.49;100.00;102244.56;5142805;28;20327;-73
2023/04/30 03:57:12;;;;;;;;;;;;;;;4.48;100.00;102249.03;5141905;28;19914;-73
2023/04/30 03:59:43;;;;;;;;;;;;;;;4.47;100.00;102254.41;5141765;28;19918;-74
2023/04/30 04:02:13;;;;;;;;;;;;;;;4.45;100.00;102256.31;5143173;28;20391;-74
2023/04/30 04:04:43;;;;;;;;;;;;;;;4.43;100.00;102255.56;5142645;28;19917;-73
2023/04/30 04:07:14;;;;;;;;;;;;;;;4.38;100.00;102264.66;5131733;28;19922;-74
2023/04/30 04:09:44;;;;;;;;;;;;;;;4.37;100.00;102262.97;5126674;28;19914;-74
2023/04/30 04:12:15;;;;;;;;;;;;;;;4.38;100.00;102262.00;5142904;28;19920;-74
2023/04/30 04:14:45;;;;;;;;;;;;;;;4.40;100.00;102260.09;5140808;28;20012;-73
2023/04/30 04:17:15;;;;;;;;;;;;;;;4.44;100.00;102257.28;5142048;28;19921;-73
2023/04/30 04:19:46;;;;;;;;;;;;;;;4.46;100.00;102258.88;5140475;28;20451;-73
2023/04/30 04:22:16;;;;;;;;;;;;;;;4.48;100.00;102262.31;5142428;28;19985;-73
2023/04/30 04:24:46;;;;;;;;;;;;;;;4.49;100.00;102253.38;5142571;28;19921;-73
2023/04/30 04:27:18;;;;;;;;;;;;;;;4.51;100.00;102263.91;5141360;28;20282;-73
2023/04/30 04:29:48;;;;;;;;;;;;;;;4.51;100.00;102263.91;5142118;28;20434;-73
2023/04/30 04:32:19;;;;;;;;;;;;;;;4.50;100.00;102259.53;5142200;28;19972;-73
2023/04/30 04:34:49;;;;;;;;;;;;;;;4.51;100.00;102266.56;5142522;28;19914;-74
2023/04/30 04:37:20;;;;;;;;;;;;;;;4.51;100.00;102261.25;5141196;28;19919;-73
2023/04/30 04:39:50;;;;;;;;;;;;;;;4.53;100.00;102264.69;5129466;28;20367;-73
2023/04/30 04:42:21;;;;;;;;;;;;;;;4.52;100.00;102270.94;5122126;28;19919;-73
2023/04/30 04:44:51;;;;;;;;;;;;;;;4.53;100.00;102275.31;5121690;28;20268;-74
2023/04/30 04:47:21;;;;;;;;;;;;;;;4.53;100.00;102270.84;5129107;28;19977;-74
2023/04/30 04:49:52;;;;;;;;;;;;;;;4.55;100.00;102274.25;5127484;28;19914;-73
2023/04/30 04:52:22;;;;;;;;;;;;;;;4.59;100.00;102277.59;5128697;28;20001;-73
2023/04/30 04:54:52;;;;;;;;;;;;;;;4.74;100.00;102281.13;5121981;28;19989;-73
2023/04/30 04:57:23;;;;;;;;;;;;;;;4.83;100.00;102278.78;5121060;28;19921;-74
2023/04/30 04:59:53;;;;;;;;;;;;;;;4.90;100.00;102281.91;5121702;28;19915;-74
2023/04/30 05:02:23;;;;;;;;;;;;;;;4.92;100.00;102283.53;5137601;28;19972;-73
2023/04/30 05:04:54;;;;;;;;;;;;;;;4.94;100.00;102286.09;5127556;28;20342;-73
2023/04/30 05:07:24;;;;;;;;;;;;;;;4.95;100.00;102290.44;5124992;28;20449;-73
2023/04/30 05:09:55;;;;;;;;;;;;;;;5.02;100.00;102296.22;5125643;28;19992;-73
2023/04/30 05:12:25;;;;;;;;;;;;;;;5.13;100.00;102296.44;5139569;28;19914;-73
2023/04/30 05:14:56;;;;;;;;;;;;;;;5.22;100.00;102295.88;5146059;28;19922;-73
2023/04/30 05:17:26;;;;;;;;;;;;;;;5.29;100.00;102291.00;5143187;28;19914;-73
2023/04/30 05:19:56;;;;;;;;;;;;;;;5.37;100.00;102302.00;5125365;28;19916;-73
2023/04/30 05:22:27;;;;;;;;;;;;;;;5.46;100.00;102299.63;5129717;28;19926;-73
2023/04/30 05:24:57;;;;;;;;;;;;;;;5.57;100.00;102301.63;5138369;28;19918;-73
2023/04/30 05:27:28;;;;;;;;;;;;;;;5.67;100.00;102296.53;5140029;28;19915;-74
2023/04/30 05:29:58;;;;;;;;;;;;;;;5.79;100.00;102290.44;5137890;28;19917;-74
2023/04/30 05:32:28;;;;;;;;;;;;;;;5.96;100.00;102289.34;5130501;28;20004;-74
2023/04/30 05:34:59;;;;;;;;;;;;;;;6.14;100.00;102290.81;5161117;28;19922;-73
2023/04/30 05:37:30;;;;;;;;;;;;;;;6.33;100.00;102289.56;5151594;28;19922;-74
2023/04/30 05:40:00;;;;;;;;;;;;;;;6.51;100.00;102296.31;5161000;28;20298;-73
2023/04/30 05:42:31;;;;;;;;;;;;;;;6.66;100.00;102297.91;5154942;28;20314;-74
2023/04/30 05:45:01;;;;;;;;;;;;;;;6.82;100.00;102295.03;5153981;28;20307;-74
2023/04/30 05:47:32;;;;;;;;;;;;;;;6.99;100.00;102289.41;5144702;28;19919;-74
2023/04/30 05:50:02;;;;;;;;;;;;;;;7.31;100.00;102299.59;5127349;28;19919;-74
2023/04/30 05:52:32;;;;;;;;;;;;;;;7.84;100.00;102296.69;5127269;28;20596;-74
2023/04/30 05:55:03;;;;;;;;;;;;;;;8.51;100.00;102291.63;5127288;28;20394;-74
2023/04/30 05:57:34;;;;;;;;;;;;;;;9.17;100.00;102300.72;5134488;28;19918;-74
2023/04/30 06:00:06;;;;;;;;;;;;;;;9.81;100.00;102292.00;5110587;28;20546;-74
2023/04/30 06:02:36;;;;;;;;;;;;;;;10.34;100.00;102286.69;5150353;28;19922;-74
2023/04/30 06:05:07;;;;;;;;;;;;;;;10.77;100.00;102289.25;5153139;28;19926;-74
2023/04/30 06:07:38;;;;;;;;;;;;;;;10.85;100.00;102281.38;5155866;28;20383;-74
2023/04/30 06:10:09;;;;;;;;;;;;;;;11.19;100.00;102283.78;5126231;28;19922;-74
2023/04/30 06:12:39;;;;;;;;;;;;;;;11.16;100.00;102289.44;5121949;28;21177;-74
2023/04/30 06:15:10;;;;;;;;;;;;;;;11.37;100.00;102292.91;5124414;28;20383;-74
2023/04/30 06:17:40;;;;;;;;;;;;;;;11.54;100.00;102283.34;5123837;28;19925;-74
2023/04/30 06:20:11;;;;;;;;;;;;;;;11.66;100.00;102276.03;5130312;28;19929;-74
2023/04/30 06:22:41;;;;;;;;;;;;;;;12.10;100.00;102271.16;5132890;28;19926;-74
2023/04/30 06:25:12;;;;;;;;;;;;;;;12.51;100.00;102274.50;5121301;28;19918;-74
2023/04/30 06:27:42;;;;;;;;;;;;;;;12.99;100.00;102277.06;5133178;28;19952;-74
2023/04/30 06:30:13;;;;;;;;;;;;;;;13.39;100.00;102279.47;5125624;28;19918;-74
2023/04/30 06:32:43;;;;;;;;;;;;;;;13.19;100.00;102283.22;5133670;28;20374;-75
2023/04/30 06:35:13;;;;;;;;;;;;;;;13.18;100.00;102279.69;5127294;28;19919;-74
2023/04/30 06:37:44;;;;;;;;;;;;;;;13.37;100.00;102278.78;5128088;28;20014;-75
2023/04/30 06:40:14;;;;;;;;;;;;;;;13.65;100.00;102285.00;5125058;28;20391;-75
2023/04/30 06:42:45;;;;;;;;;;;;;;;13.96;100.00;102284.66;5128699;28;20350;-74
2023/04/30 06:45:16;;;;;;;;;;;;;;;14.29;100.00;102280.41;5128661;28;19918;-74
2023/04/30 06:47:46;;;;;;;;;;;;;;;14.36;100.00;102280.66;5132522;28;19922;-74
2023/04/30 06:50:20;;;;;;;;;;;;;;;14.83;100.00;102288.44;5121064;28;19951;-74
2023/04/30 06:52:51;;;;;;;;;;;;;;;14.90;100.00;102284.91;5123252;28;19949;-74
2023/04/30 06:55:21;;;;;;;;;;;;;;;15.02;100.00;102293.63;5125975;28;19969;-74
2023/04/30 06:57:53;;;;;;;;;;;;;;;15.01;100.00;102292.78;5128598;28;20039;-74
2023/04/30 07:00:23;;;;;;;;;;;;;;;15.25;100.00;102297.44;5128353;28;19918;-74
2023/04/30 07:02:55;;;;;;;;;;;;;;;15.45;100.00;102291.78;5127182;28;20784;-74
2023/04/30 07:05:26;;;;;;;;;;;;;;;16.00;100.00;102285.88;5120384;28;19918;-74
2023/04/30 07:07:57;;;;;;;;;;;;;;;16.19;100.00;102288.28;5122875;28;19934;-74
2023/04/30 07:10:27;;;;;;;;;;;;;;;16.36;100.00;102280.97;5139790;28;20378;-74
2023/04/30 07:12:58;;;;;;;;;;;;;;;16.54;100.00;102280.81;5154373;28;19914;-75
2023/04/30 07:15:28;;;;;;;;;;;;;;;16.36;100.00;102274.72;5131280;28;20005;-75
2023/04/30 07:17:58;;;;;;;;;;;;;;;16.56;100.00;102274.19;5134067;28;20331;-75
2023/04/30 07:20:29;;;;;;;;;;;;;;;16.87;100.00;102278.06;5122982;28;20264;-75
2023/04/30 07:22:59;;;;;;;;;;;;;;;16.81;100.00;102272.31;5122598;28;19977;-75
2023/04/30 07:25:29;;;;;;;;;;;;;;;16.72;100.00;102269.84;5123424;28;19914;-75
2023/04/30 07:28:00;;;;;;;;;;;;;;;17.16;100.00;102267.47;5135818;28;20318;-75
2023/04/30 07:30:30;;;;;;;;;;;;;;;17.23;100.00;102263.06;5138949;28;19914;-75
2023/04/30 07:33:01;;;;;;;;;;;;;;;17.56;100.00;102269.16;5133801;28;19922;-75
2023/04/30 07:35:32;;;;;;;;;;;;;;;17.64;100.00;102272.88;5136748;28;19922;-75
2023/04/30 07:38:04;;;;;;;;;;;;;;;18.00;100.00;102268.59;5141724;28;20399;-75
2023/04/30 07:40:37;;;;;;;;;;;;;;;18.00;100.00;102265.88;5137061;28;19919;-75
2023/04/30 07:43:07;;;;;;;;;;;;;;;18.15;100.00;102265.09;5122948;28;19974;-75
2023/04/30 07:45:38;;;;;;;;;;;;;;;18.14;100.00;102261.53;5122170;28;19957;-75
2023/04/30 07:48:08;;;;;;;;;;;;;;;17.94;100.00;102265.75;5121209;28;19937;-75
2023/04/30 07:50:38;;;;;;;;;;;;;;;17.89;100.00;102262.75;5121972;28;19915;-75
2023/04/30 07:53:09;;;;;;;;;;;;;;;18.01;100.00;102264.00;5140134;28;20448;-75
2023/04/30 07:55:39;;;;;;;;;;;;;;;17.88;100.00;102261.06;5122600;28;20006;-75
2023/04/30 07:58:10;;;;;;;;;;;;;;;18.47;100.00;102264.78;5136771;28;20383;-75
2023/04/30 08:00:41;;;;;;;;;;;;;;;18.96;100.00;102261.63;5140604;28;19950;-75
2023/04/30 08:03:11;;;;;;;;;;;;;;;19.32;100.00;102266.28;5142745;28;19921;-76
2023/04/30 08:05:41;;;;;;;;;;;;;;;19.46;100.00;102272.75;5142531;28;19914;-75
2023/04/30 08:08:12;;;;;;;;;;;;;;;18.77;100.00;102273.03;5141263;28;19914;-75
2023/04/30 08:10:42;;;;;;;;;;;;;;;18.96;100.00;102272.50;5140261;28;19914;-75
2023/04/30 08:13:13;;;;;;;;;;;;;;;19.40;100.00;102271.63;5142719;28;20047;-75
2023/04/30 08:15:43;;;;;;;;;;;;;;;19.42;100.00;102266.81;5142297;28;19928;-75
2023/04/30 08:18:13;;;;;;;;;;;;;;;19.78;100.00;102264.16;5141413;28;19918;-75
2023/04/30 08:20:44;;;;;;;;;;;;;;;19.40;100.00;102261.56;5141932;28;20004;-75
2023/04/30 08:23:15;;;;;;;;;;;;;;;19.25;100.00;102266.19;5142182;28;19961;-75
2023/04/30 08:25:46;;;;;;;;;;;;;;;19.01;100.00;102270.06;5125114;28;20836;-75
2023/04/30 08:28:16;;;;;;;;;;;;;;;19.00;100.00;102260.22;5125478;28;19918;-75
2023/04/30 08:30:50;;;;;;;;;;;;;;;19.24;100.00;102267.25;5133985;28;20459;-75
2023/04/30 08:33:20;;;;;;;;;;;;;;;19.71;100.00;102259.66;5122484;28;19984;-75
2023/04/30 08:35:51;;;;;;;;;;;;;;;19.72;100.00;102256.75;5133313;28;19922;-75
2023/04/30 08:38:21;;;;;;;;;;;;;;;19.76;100.00;102255.31;5121840;28;19921;-75
2023/04/30 08:40:55;;;;;;;;;;;;;;;19.97;100.00;102261.81;5141079;28;19949;-76
2023/04/30 08:43:29;;;;;;;;;;;;;;;20.19;100.00;102255.34;5142177;28;19922;-75
2023/04/30 08:46:00;;;;;;;;;;;;;;;20.09;100.00;102252.09;5142077;28;20280;-75
2023/04/30 08:48:30;;;;;;;;;;;;;;;19.75;100.00;102255.53;5137193;28;19924;-75
2023/04/30 08:51:02;;;;;;;;;;;;;;;19.77;100.00;102261.59;5124764;28;19930;-75
2023/04/30 08:53:50;;;;;;;;;;;;;;;20.02;100.00;102254.75;5137086;28;19930;-75
2023/04/30 08:56:21;;;;;;;;;;;;;;;19.42;100.00;102262.22;5136716;28;20378;-74
2023/04/30 08:58:51;;;;;;;;;;;;;;;19.41;100.00;102262.41;5132047;28;19914;-75
2023/04/30 09:01:22;;;;;;;;;;;;;;;19.40;100.00;102249.84;5124754;28;19946;-75
2023/04/30 09:03:52;;;;;;;;;;;;;;;20.08;100.00;102251.25;5132046;28;19969;-74
2023/04/30 09:06:23;;;;;;;;;;;;;;;20.15;100.00;102252.16;5138242;28;20005;-74
2023/04/30 09:08:54;;;;;;;;;;;;;;;20.13;100.00;102248.81;5141559;28;19969;-75
2023/04/30 09:11:26;;;;;;;;;;;;;;;20.57;100.00;102235.97;5134499;28;20468;-75
2023/04/30 09:13:57;;;;;;;;;;;;;;;21.10;100.00;102245.31;5133663;28;19918;-75
2023/04/30 09:16:31;;;;;;;;;;;;;;;21.08;100.00;102241.09;5140595;28;20383;-75
2023/04/30 09:19:02;;;;;;;;;;;;;;;20.90;100.00;102242.47;5128212;28;19915;-75
2023/04/30 09:21:33;;;;;;;;;;;;;;;20.98;100.00;102246.91;5128440;28;19956;-75
2023/04/30 09:24:04;;;;;;;;;;;;;;;20.40;100.00;102238.13;5126482;28;19914;-75
2023/04/30 09:26:36;;;;;;;;;;;;;;;20.84;100.00;102237.84;5120963;28;19970;-75
2023/04/30 09:29:07;;;;;;;;;;;;;;;21.08;100.00;102235.63;5137661;28;19914;-75
2023/04/30 09:31:37;;;;;;;;;;;;;;;21.11;100.00;102230.63;5141766;28;20295;-75
2023/04/30 09:34:08;;;;;;;;;;;;;;;20.76;100.00;102232.53;5141714;28;20577;-75
2023/04/30 09:36:57;;;;;;;;;;;;;;;20.31;100.00;102218.34;5141377;28;19914;-75
2023/04/30 09:39:27;;;;;;;;;;;;;;;20.53;100.00;102221.03;5121856;28;19921;-76
2023/04/30 09:42:08;;;;;;;;;;;;;;;21.01;100.00;102223.84;5125973;28;19919;-75
2023/04/30 09:44:39;;;;;;;;;;;;;;;20.91;100.00;102225.06;5133755;28;19914;-75
2023/04/30 09:47:12;;;;;;;;;;;;;;;21.10;100.00;102228.09;5139967;28;19914;-75
2023/04/30 09:49:46;;;;;;;;;;;;;;;20.78;100.00;102229.59;5134163;28;19919;-75
2023/04/30 09:52:17;;;;;;;;;;;;;;;21.05;100.00;102230.59;5132628;28;20005;-75
2023/04/30 09:54:48;;;;;;;;;;;;;;;20.92;100.00;102223.19;5125785;28;19918;-75
2023/04/30 09:57:20;;;;;;;;;;;;;;;21.11;100.00;102225.16;5124037;28;19965;-75
2023/04/30 09:59:51;;;;;;;;;;;;;;;21.57;100.00;102219.06;5123906;28;19922;-75
2023/04/30 10:02:22;;;;;;;;;;;;;;;22.04;100.00;102219.13;5125032;28;20032;-75
2023/04/30 10:04:54;;;;;;;;;;;;;;;22.19;100.00;102220.66;5125300;28;19914;-76
2023/04/30 10:07:30;;;;;;;;;;;;;;;21.48;100.00;102216.72;5123166;28;19967;-75
2023/04/30 10:10:01;;;;;;;;;;;;;;;21.05;100.00;102215.06;5124177;28;19918;-76
2023/04/30 10:12:37;;;;;;;;;;;;;;;20.63;95.94;102206.03;5124771;28;20013;-75
2023/04/30 10:15:10;;;;;;;;;;;;;;;20.37;100.00;102203.06;5125081;28;19914;-75
2023/04/30 10:17:41;;;;;;;;;;;;;;;19.89;100.00;102201.00;5139763;28;20024;-75
2023/04/30 10:20:11;;;;;;;;;;;;;;;20.25;100.00;102199.22;5143000;28;19921;-75
2023/04/30 10:22:43;;;;;;;;;;;;;;;20.49;96.84;102197.97;5126807;28;20311;-75
2023/04/30 10:25:15;;;;;;;;;;;;;;;19.97;100.00;102199.16;5124722;28;19922;-75
2023/04/30 10:27:45;;;;;;;;;;;;;;;20.23;100.00;102187.66;5129282;28;19914;-75
2023/04/30 10:30:16;;;;;;;;;;;;;;;20.43;100.00;102180.47;5143694;28;20334;-75
2023/04/30 10:33:02;;;;;;;;;;;;;;;20.33;97.84;102182.69;5144174;28;20412;-75
2023/04/30 10:35:38;;;;;;;;;;;;;;;20.72;99.42;102184.03;5144340;28;20260;-75
2023/04/30 10:38:12;;;;;;;;;;;;;;;20.27;93.86;102178.03;5142390;28;20383;-75
2023/04/30 10:40:44;;;;;;;;;;;;;;;20.73;100.00;102180.25;5143538;28;19914;-75
2023/04/30 10:43:17;;;;;;;;;;;;;;;20.44;96.53;102179.44;5142702;28;19914;-75
2023/04/30 10:45:48;;;;;;;;;;;;;;;20.29;94.98;102176.00;5131183;28;20371;-75
2023/04/30 10:48:24;;;;;;;;;;;;;;;20.00;87.85;102177.00;5142120;28;20030;-75
2023/04/30 10:50:56;;;;;;;;;;;;;;;20.00;94.38;102166.94;5141605;28;19957;-75
2023/04/30 10:53:29;;;;;;;;;;;;;;;20.09;91.47;102164.94;5123641;28;19923;-75
2023/04/30 10:58:51;;;;;;;;;;;;;;;20.62;99.86;102155.25;5131514;28;19914;-75
2023/04/30 11:01:22;;;;;;;;;;;;;;;20.51;87.63;102149.53;5139239;28;19958;-75
2023/04/30 11:04:05;;;;;;;;;;;;;;;19.98;91.99;102154.56;5123534;28;20435;-75
2023/04/30 11:06:54;;;;;;;;;;;;;;;20.19;92.00;102151.81;5121963;28;19919;-75
2023/04/30 11:09:36;;;;;;;;;;;;;;;19.76;87.95;102146.41;5123232;28;19914;-75
2023/04/30 11:12:27;;;;;;;;;;;;;;;19.55;91.15;102146.38;5123266;28;19960;-76
2023/04/30 11:15:11;;;;;;;;;;;;;;;19.54;87.40;102140.09;5131126;28;20345;-75
2023/04/30 11:17:42;;;;;;;;;;;;;;;19.06;93.98;102142.50;5142074;28;19914;-75
2023/04/30 11:20:13;;;;;;;;;;;;;;;18.96;100.00;102127.53;5143297;28;19914;-75
2023/04/30 11:22:44;;;;;;;;;;;;;;;19.23;100.00;102128.66;5136865;28;19929;-75
2023/04/30 11:25:33;;;;;;;;;;;;;;;19.34;95.51;102122.75;5122217;28;19914;-75
2023/04/30 11:28:04;;;;;;;;;;;;;;;19.08;93.99;102117.84;5124369;28;19922;-75
2023/04/30 11:30:35;;;;;;;;;;;;;;;19.17;98.84;102113.94;5141431;28;19922;-75
2023/04/30 11:33:06;;;;;;;;;;;;;;;19.28;90.68;102116.19;5142950;28;19926;-75
2023/04/30 11:35:37;;;;;;;;;;;;;;;19.05;88.73;102121.78;5139260;28;19914;-75
2023/04/30 11:38:08;;;;;;;;;;;;;;;19.13;95.93;102109.97;5121359;28;19961;-75
2023/04/30 11:40:39;;;;;;;;;;;;;;;19.28;94.11;102108.03;5121656;28;19914;-75
2023/04/30 11:43:20;;;;;;;;;;;;;;;19.49;94.80;102101.75;5123001;28;19926;-75
2023/04/30 11:46:04;;;;;;;;;;;;;;;19.77;86.41;102100.97;5123022;28;19915;-75
2023/04/30 11:48:36;;;;;;;;;;;;;;;20.06;86.92;102105.38;5120848;28;20570;-75
2023/04/30 11:51:25;;;;;;;;;;;;;;;20.01;89.52;102095.09;5126360;28;19918;-75
2023/04/30 11:53:56;;;;;;;;;;;;;;;19.62;94.23;102101.03;5130183;28;19922;-75
2023/04/30 11:56:26;;;;;;;;;;;;;;;19.57;90.22;102089.88;5141852;28;19920;-75
2023/04/30 11:58:56;;;;;;;;;;;;;;;19.77;87.41;102085.47;5142678;28;20401;-75
2023/04/30 12:01:27;;;;;;;;;;;;;;;20.31;99.94;102083.97;5126240;28;21059;-75
2023/04/30 12:03:58;;;;;;;;;;;;;;;20.71;92.23;102076.84;5133050;28;19921;-75
2023/04/30 12:06:28;;;;;;;;;;;;;;;20.84;83.49;102082.38;5123516;28;19918;-75
2023/04/30 12:09:00;;;;;;;;;;;;;;;20.80;83.85;102075.63;5121112;28;19969;-75
2023/04/30 12:11:30;;;;;;;;;;;;;;;20.53;80.40;102079.28;5126061;28;19921;-75
2023/04/30 12:14:03;;;;;;;;;;;;;;;20.76;83.67;102070.78;5142712;28;19914;-75
2023/04/30 12:16:49;;;;;;;;;;;;;;;20.72;79.14;102066.78;5141174;28;19968;-75
2023/04/30 12:19:21;;;;;;;;;;;;;;;20.83;88.66;102058.00;5129350;28;20295;-75
2023/04/30 12:21:53;;;;;;;;;;;;;;;20.15;85.41;102063.34;5142107;28;19930;-76
2023/04/30 12:24:25;;;;;;;;;;;;;;;20.34;85.40;102059.06;5142372;28;20363;-76
2023/04/30 12:26:58;;;;;;;;;;;;;;;20.74;80.52;102053.81;5141390;28;19914;-75
2023/04/30 12:29:28;;;;;;;;;;;;;;;20.68;75.30;102053.56;5141610;28;20391;-76
2023/04/30 12:32:01;;;;;;;;;;;;;;;20.80;83.55;102047.53;5142252;28;19914;-76
2023/04/30 12:34:32;;;;;;;;;;;;;;;20.80;87.11;102047.53;5141311;28;19961;-76
2023/04/30 12:37:02;;;;;;;;;;;;;;;20.86;76.98;102049.44;5140490;28;19914;-76
2023/04/30 12:39:34;;;;;;;;;;;;;;;20.48;78.71;102057.25;5141509;28;19957;-76
2023/04/30 12:42:04;;;;;;;;;;;;;;;20.21;74.38;102045.34;5138585;28;19962;-76
2023/04/30 12:44:53;;;;;;;;;;;;;;;20.48;78.34;102032.72;5121378;28;19922;-76
2023/04/30 12:47:24;;;;;;;;;;;;;;;20.33;72.26;102030.09;5121334;28;20009;-76
2023/04/30 12:49:54;;;;;;;;;;;;;;;20.29;79.20;102034.28;5121526;28;20368;-76
2023/04/30 12:52:25;;;;;;;;;;;;;;;20.24;74.51;102032.16;5136575;28;19915;-76
2023/04/30 12:54:56;;;;;;;;;;;;;;;20.33;74.20;102030.97;5138746;28;20001;-76
2023/04/30 12:57:26;;;;;;;;;;;;;;;20.53;82.32;102025.59;5121396;28;19937;-76
2023/04/30 12:59:58;;;;;;;;;;;;;;;;;;5134943;28;19915;-75